Hafnia Taurus — 9HA4252 — position and weather

sailwx.info

Track history (hours):
 
Tides and Currents Weather Stations Pressure Air Temp Water Temp Dewpoint Dewpoint Depression Visibility Wind Speed Wind Dir Waves Ship Positions

Hafnia Taurus

Last reported at 2018-Feb-07 22:05 UTC. Time now 2018-Feb-19 02:13 UTC.
Position N 31°36' E 032°08'.
Warning: this ship's position is 11 days out of date.

Length 183 m; draft 11.7 m.

Type: Ship. MMSI: 249459000.

Date/timePositionNaut miles runAvg speedWind from/ knotsBaromVisibWave heightAir tempDewpointWater temp
2018-Feb-07 22:05N 31°36' E 032°08'212.2
2018-Feb-07 21:52N 31°37' E 032°06'  
2018-Feb-03 23:39N 35°58' E 014°37'0 1.1
2018-Feb-03 23:29N 35°58' E 014°36'1 0.1
2018-Feb-03 15:35N 35°57' E 014°36'0 1.8
2018-Feb-03 15:27N 35°57' E 014°36'2 0.5
2018-Feb-03 11:57N 35°58' E 014°37'1 1.3
2018-Feb-03 11:26N 35°59' E 014°36'1 1.3
2018-Feb-03 10:58N 35°59' E 014°36'11 7.1
2018-Feb-03 09:26N 36°07' E 014°27'613.1
2018-Feb-03 08:59N 36°10' E 014°20'613.1
2018-Feb-03 08:30N 36°12' E 014°13'713.1
2018-Feb-03 07:58N 36°15' E 014°05'6112.3
2018-Feb-03 03:01N 36°40' E 012°56'  
2018-Jan-31 01:38N 35°59' W 005°20'210.1
2018-Jan-31 01:29N 35°59' W 005°22'5 9.8
2018-Jan-31 01:00N 35°57' W 005°28'229 7.9
2018-Jan-29 20:12N 37°27' W 009°50'7212.6
2018-Jan-29 14:33N 38°37' W 010°10'112.6
2018-Jan-29 14:29N 38°38' W 010°10'612.6
2018-Jan-29 14:00N 38°44' W 010°11'712.5
2018-Jan-29 13:26N 38°51' W 010°11'  
Track history (hours):
 
Tides and Currents Weather Stations Pressure Air Temp Water Temp Dewpoint Dewpoint Depression Visibility Wind Speed Wind Dir Waves Ship Positions

Hafnia Taurus

Last reported at 2018-Feb-07 22:05 UTC. Time now 2018-Feb-19 02:13 UTC.
Position N 31°36' E 032°08'.
Warning: this ship's position is 11 days out of date.

Length 183 m; draft 11.7 m.

Type: Ship. MMSI: 249459000.

Date/timePositionNaut miles runAvg speedWind from/ knotsBaromVisibWave heightAir tempDewpointWater temp
2018-Feb-07 22:05N 31°36' E 032°08'212.2
2018-Feb-07 21:52N 31°37' E 032°06'  
2018-Feb-03 23:39N 35°58' E 014°37'0 1.1
2018-Feb-03 23:29N 35°58' E 014°36'1 0.1
2018-Feb-03 15:35N 35°57' E 014°36'0 1.8
2018-Feb-03 15:27N 35°57' E 014°36'2 0.5
2018-Feb-03 11:57N 35°58' E 014°37'1 1.3
2018-Feb-03 11:26N 35°59' E 014°36'1 1.3
2018-Feb-03 10:58N 35°59' E 014°36'11 7.1
2018-Feb-03 09:26N 36°07' E 014°27'613.1
2018-Feb-03 08:59N 36°10' E 014°20'613.1
2018-Feb-03 08:30N 36°12' E 014°13'713.1
2018-Feb-03 07:58N 36°15' E 014°05'6112.3
2018-Feb-03 03:01N 36°40' E 012°56'  
2018-Jan-31 01:38N 35°59' W 005°20'210.1
2018-Jan-31 01:29N 35°59' W 005°22'5 9.8
2018-Jan-31 01:00N 35°57' W 005°28'229 7.9
2018-Jan-29 20:12N 37°27' W 009°50'7212.6
2018-Jan-29 14:33N 38°37' W 010°10'112.6
2018-Jan-29 14:29N 38°38' W 010°10'612.6
2018-Jan-29 14:00N 38°44' W 010°11'712.5
2018-Jan-29 13:26N 38°51' W 010°11'  

Dump ship's entire track history